sensor_id;sensor_type;location;lat;lon;timestamp;P1;durP1;ratioP1;P2;durP2;ratioP2
59649;SDS011;46162;57.568;25.814;2023-12-29T00:00:41;14.45;;;8.18;;
59649;SDS011;46162;57.568;25.814;2023-12-29T00:03:10;16.55;;;8.25;;
59649;SDS011;46162;57.568;25.814;2023-12-29T00:05:38;22.27;;;8.95;;
59649;SDS011;46162;57.568;25.814;2023-12-29T00:08:08;16.30;;;8.35;;
59649;SDS011;46162;57.568;25.814;2023-12-29T00:10:37;15.18;;;7.55;;
59649;SDS011;46162;57.568;25.814;2023-12-29T00:13:05;15.43;;;7.60;;
59649;SDS011;46162;57.568;25.814;2023-12-29T00:15:34;15.75;;;7.65;;
59649;SDS011;46162;57.568;25.814;2023-12-29T00:18:03;16.33;;;7.72;;
59649;SDS011;46162;57.568;25.814;2023-12-29T00:20:32;15.45;;;7.43;;
59649;SDS011;46162;57.568;25.814;2023-12-29T00:23:09;15.35;;;7.93;;
59649;SDS011;46162;57.568;25.814;2023-12-29T00:25:38;14.85;;;6.60;;
59649;SDS011;46162;57.568;25.814;2023-12-29T00:28:07;16.00;;;6.93;;
59649;SDS011;46162;57.568;25.814;2023-12-29T00:30:37;13.93;;;6.57;;
59649;SDS011;46162;57.568;25.814;2023-12-29T00:33:26;12.65;;;6.72;;
59649;SDS011;46162;57.568;25.814;2023-12-29T00:35:55;13.80;;;5.95;;
59649;SDS011;46162;57.568;25.814;2023-12-29T00:38:26;12.05;;;5.22;;
59649;SDS011;46162;57.568;25.814;2023-12-29T00:40:55;13.77;;;5.75;;
59649;SDS011;46162;57.568;25.814;2023-12-29T00:43:23;17.48;;;5.28;;
59649;SDS011;46162;57.568;25.814;2023-12-29T00:45:52;9.52;;;5.30;;
59649;SDS011;46162;57.568;25.814;2023-12-29T00:48:21;10.35;;;4.15;;
59649;SDS011;46162;57.568;25.814;2023-12-29T00:50:50;11.40;;;4.68;;
59649;SDS011;46162;57.568;25.814;2023-12-29T00:53:18;12.02;;;4.55;;
59649;SDS011;46162;57.568;25.814;2023-12-29T00:55:48;12.93;;;5.03;;
59649;SDS011;46162;57.568;25.814;2023-12-29T00:58:17;12.40;;;4.93;;
59649;SDS011;46162;57.568;25.814;2023-12-29T01:00:46;13.43;;;4.93;;
59649;SDS011;46162;57.568;25.814;2023-12-29T01:03:14;11.73;;;3.83;;
59649;SDS011;46162;57.568;25.814;2023-12-29T01:05:43;11.07;;;4.80;;
59649;SDS011;46162;57.568;25.814;2023-12-29T01:08:12;11.05;;;4.47;;
59649;SDS011;46162;57.568;25.814;2023-12-29T01:10:41;11.55;;;3.65;;
59649;SDS011;46162;57.568;25.814;2023-12-29T01:13:11;14.98;;;3.72;;
59649;SDS011;46162;57.568;25.814;2023-12-29T01:15:40;14.47;;;3.27;;
59649;SDS011;46162;57.568;25.814;2023-12-29T01:18:12;10.80;;;3.42;;
59649;SDS011;46162;57.568;25.814;2023-12-29T01:20:41;14.40;;;3.78;;
59649;SDS011;46162;57.568;25.814;2023-12-29T01:23:10;10.48;;;2.70;;
59649;SDS011;46162;57.568;25.814;2023-12-29T01:25:39;11.02;;;2.60;;
59649;SDS011;46162;57.568;25.814;2023-12-29T01:28:08;14.20;;;2.50;;
59649;SDS011;46162;57.568;25.814;2023-12-29T01:30:38;9.57;;;2.40;;
59649;SDS011;46162;57.568;25.814;2023-12-29T01:33:07;7.25;;;1.73;;
59649;SDS011;46162;57.568;25.814;2023-12-29T01:35:37;11.90;;;1.30;;
59649;SDS011;46162;57.568;25.814;2023-12-29T01:38:06;11.80;;;1.30;;
59649;SDS011;46162;57.568;25.814;2023-12-29T01:40:42;7.70;;;1.23;;
59649;SDS011;46162;57.568;25.814;2023-12-29T01:43:12;7.28;;;1.08;;
59649;SDS011;46162;57.568;25.814;2023-12-29T01:45:43;12.32;;;1.60;;
59649;SDS011;46162;57.568;25.814;2023-12-29T01:48:23;6.32;;;1.08;;
59649;SDS011;46162;57.568;25.814;2023-12-29T01:50:53;8.63;;;1.23;;
59649;SDS011;46162;57.568;25.814;2023-12-29T01:53:24;10.27;;;1.00;;
59649;SDS011;46162;57.568;25.814;2023-12-29T01:56:08;9.25;;;1.05;;
59649;SDS011;46162;57.568;25.814;2023-12-29T01:58:38;9.75;;;0.88;;
59649;SDS011;46162;57.568;25.814;2023-12-29T02:01:08;12.80;;;0.90;;
59649;SDS011;46162;57.568;25.814;2023-12-29T02:03:36;13.27;;;1.27;;
59649;SDS011;46162;57.568;25.814;2023-12-29T02:06:06;14.25;;;1.30;;
59649;SDS011;46162;57.568;25.814;2023-12-29T02:08:36;9.93;;;1.20;;
59649;SDS011;46162;57.568;25.814;2023-12-29T02:11:05;7.07;;;0.85;;
59649;SDS011;46162;57.568;25.814;2023-12-29T02:13:34;10.43;;;0.63;;
59649;SDS011;46162;57.568;25.814;2023-12-29T02:16:04;9.38;;;1.27;;
59649;SDS011;46162;57.568;25.814;2023-12-29T02:18:40;11.68;;;1.00;;
59649;SDS011;46162;57.568;25.814;2023-12-29T02:21:13;8.93;;;0.68;;
59649;SDS011;46162;57.568;25.814;2023-12-29T02:23:42;10.30;;;0.63;;
59649;SDS011;46162;57.568;25.814;2023-12-29T02:26:13;7.10;;;0.70;;
59649;SDS011;46162;57.568;25.814;2023-12-29T02:28:44;10.52;;;0.93;;
59649;SDS011;46162;57.568;25.814;2023-12-29T02:31:22;12.68;;;1.27;;
59649;SDS011;46162;57.568;25.814;2023-12-29T02:33:55;11.05;;;0.60;;
59649;SDS011;46162;57.568;25.814;2023-12-29T02:36:26;8.40;;;0.95;;
59649;SDS011;46162;57.568;25.814;2023-12-29T02:38:54;7.50;;;0.45;;
59649;SDS011;46162;57.568;25.814;2023-12-29T02:41:25;10.48;;;0.60;;
59649;SDS011;46162;57.568;25.814;2023-12-29T02:43:53;6.93;;;0.52;;
59649;SDS011;46162;57.568;25.814;2023-12-29T02:46:22;8.50;;;0.52;;
59649;SDS011;46162;57.568;25.814;2023-12-29T02:48:51;12.88;;;0.60;;
59649;SDS011;46162;57.568;25.814;2023-12-29T02:51:20;11.68;;;0.68;;
59649;SDS011;46162;57.568;25.814;2023-12-29T02:53:49;11.20;;;0.77;;
59649;SDS011;46162;57.568;25.814;2023-12-29T02:56:18;6.82;;;0.32;;
59649;SDS011;46162;57.568;25.814;2023-12-29T02:58:48;7.85;;;0.50;;
59649;SDS011;46162;57.568;25.814;2023-12-29T03:01:18;10.63;;;0.60;;
59649;SDS011;46162;57.568;25.814;2023-12-29T03:03:47;7.63;;;0.63;;
59649;SDS011;46162;57.568;25.814;2023-12-29T03:06:16;11.98;;;0.35;;
59649;SDS011;46162;57.568;25.814;2023-12-29T03:08:45;9.43;;;0.35;;
59649;SDS011;46162;57.568;25.814;2023-12-29T03:11:13;11.38;;;0.40;;
59649;SDS011;46162;57.568;25.814;2023-12-29T03:13:42;9.30;;;0.80;;
59649;SDS011;46162;57.568;25.814;2023-12-29T03:16:13;10.18;;;0.70;;
59649;SDS011;46162;57.568;25.814;2023-12-29T03:18:41;15.73;;;0.98;;
59649;SDS011;46162;57.568;25.814;2023-12-29T03:21:10;7.10;;;0.63;;
59649;SDS011;46162;57.568;25.814;2023-12-29T03:23:39;16.63;;;0.73;;
59649;SDS011;46162;57.568;25.814;2023-12-29T03:26:08;12.85;;;0.70;;
59649;SDS011;46162;57.568;25.814;2023-12-29T03:28:36;10.07;;;0.30;;
59649;SDS011;46162;57.568;25.814;2023-12-29T03:31:05;12.05;;;0.68;;
59649;SDS011;46162;57.568;25.814;2023-12-29T03:33:35;13.40;;;0.70;;
59649;SDS011;46162;57.568;25.814;2023-12-29T03:36:04;9.17;;;0.23;;
59649;SDS011;46162;57.568;25.814;2023-12-29T03:38:36;9.85;;;0.40;;
59649;SDS011;46162;57.568;25.814;2023-12-29T03:41:04;9.85;;;0.88;;
59649;SDS011;46162;57.568;25.814;2023-12-29T03:43:33;12.43;;;0.47;;
59649;SDS011;46162;57.568;25.814;2023-12-29T03:46:02;12.98;;;0.68;;
59649;SDS011;46162;57.568;25.814;2023-12-29T03:48:31;12.73;;;0.40;;
59649;SDS011;46162;57.568;25.814;2023-12-29T03:51:01;16.70;;;0.47;;
59649;SDS011;46162;57.568;25.814;2023-12-29T03:53:30;13.53;;;0.80;;
59649;SDS011;46162;57.568;25.814;2023-12-29T03:55:58;9.35;;;0.20;;
59649;SDS011;46162;57.568;25.814;2023-12-29T03:58:27;11.88;;;0.75;;
59649;SDS011;46162;57.568;25.814;2023-12-29T04:00:56;8.07;;;0.30;;
59649;SDS011;46162;57.568;25.814;2023-12-29T04:03:25;11.23;;;0.20;;
59649;SDS011;46162;57.568;25.814;2023-12-29T04:05:54;11.63;;;0.38;;
59649;SDS011;46162;57.568;25.814;2023-12-29T04:08:24;15.68;;;0.80;;
59649;SDS011;46162;57.568;25.814;2023-12-29T04:10:53;14.85;;;0.63;;
59649;SDS011;46162;57.568;25.814;2023-12-29T04:13:22;4.53;;;0.20;;
59649;SDS011;46162;57.568;25.814;2023-12-29T04:15:51;11.02;;;0.43;;
59649;SDS011;46162;57.568;25.814;2023-12-29T04:18:20;16.25;;;0.77;;
59649;SDS011;46162;57.568;25.814;2023-12-29T04:20:50;9.30;;;0.45;;
59649;SDS011;46162;57.568;25.814;2023-12-29T04:23:19;15.88;;;0.88;;
59649;SDS011;46162;57.568;25.814;2023-12-29T04:25:49;8.70;;;0.47;;
59649;SDS011;46162;57.568;25.814;2023-12-29T04:28:18;18.53;;;0.50;;
59649;SDS011;46162;57.568;25.814;2023-12-29T04:30:47;8.25;;;0.40;;
59649;SDS011;46162;57.568;25.814;2023-12-29T04:33:16;11.02;;;0.50;;
59649;SDS011;46162;57.568;25.814;2023-12-29T04:35:45;12.70;;;0.20;;
59649;SDS011;46162;57.568;25.814;2023-12-29T04:38:15;13.00;;;0.77;;
59649;SDS011;46162;57.568;25.814;2023-12-29T04:40:46;14.25;;;0.60;;
59649;SDS011;46162;57.568;25.814;2023-12-29T04:43:16;20.02;;;0.50;;
59649;SDS011;46162;57.568;25.814;2023-12-29T04:45:45;13.43;;;0.43;;
59649;SDS011;46162;57.568;25.814;2023-12-29T04:48:14;9.48;;;0.25;;
59649;SDS011;46162;57.568;25.814;2023-12-29T04:50:43;9.23;;;0.30;;
59649;SDS011;46162;57.568;25.814;2023-12-29T04:53:12;17.25;;;0.63;;
59649;SDS011;46162;57.568;25.814;2023-12-29T04:55:41;10.23;;;0.40;;
59649;SDS011;46162;57.568;25.814;2023-12-29T04:58:10;10.48;;;0.73;;
59649;SDS011;46162;57.568;25.814;2023-12-29T05:00:40;15.85;;;0.75;;
59649;SDS011;46162;57.568;25.814;2023-12-29T05:03:09;7.78;;;0.35;;
59649;SDS011;46162;57.568;25.814;2023-12-29T05:05:38;6.43;;;0.20;;
59649;SDS011;46162;57.568;25.814;2023-12-29T05:08:07;11.80;;;0.70;;
59649;SDS011;46162;57.568;25.814;2023-12-29T05:10:36;11.23;;;0.40;;
59649;SDS011;46162;57.568;25.814;2023-12-29T05:13:05;13.13;;;0.38;;
59649;SDS011;46162;57.568;25.814;2023-12-29T05:15:34;7.90;;;0.52;;
59649;SDS011;46162;57.568;25.814;2023-12-29T05:18:03;14.07;;;0.47;;
59649;SDS011;46162;57.568;25.814;2023-12-29T05:20:33;6.20;;;0.32;;
59649;SDS011;46162;57.568;25.814;2023-12-29T05:23:01;13.77;;;0.60;;
59649;SDS011;46162;57.568;25.814;2023-12-29T05:25:30;8.45;;;0.30;;
59649;SDS011;46162;57.568;25.814;2023-12-29T05:27:59;11.45;;;0.55;;
59649;SDS011;46162;57.568;25.814;2023-12-29T05:30:28;14.55;;;0.40;;
59649;SDS011;46162;57.568;25.814;2023-12-29T05:32:58;11.43;;;0.50;;
59649;SDS011;46162;57.568;25.814;2023-12-29T05:35:29;9.55;;;0.38;;
59649;SDS011;46162;57.568;25.814;2023-12-29T05:37:58;12.73;;;0.30;;
59649;SDS011;46162;57.568;25.814;2023-12-29T05:40:30;14.63;;;0.50;;
59649;SDS011;46162;57.568;25.814;2023-12-29T05:42:59;12.50;;;0.68;;
59649;SDS011;46162;57.568;25.814;2023-12-29T05:45:29;14.63;;;0.68;;
59649;SDS011;46162;57.568;25.814;2023-12-29T05:47:57;11.18;;;0.77;;
59649;SDS011;46162;57.568;25.814;2023-12-29T05:50:27;13.02;;;1.00;;
59649;SDS011;46162;57.568;25.814;2023-12-29T05:52:57;15.40;;;0.98;;
59649;SDS011;46162;57.568;25.814;2023-12-29T05:55:26;18.73;;;1.40;;
59649;SDS011;46162;57.568;25.814;2023-12-29T05:57:54;13.02;;;1.23;;
59649;SDS011;46162;57.568;25.814;2023-12-29T06:00:23;16.75;;;1.30;;
59649;SDS011;46162;57.568;25.814;2023-12-29T06:02:52;17.50;;;1.35;;
59649;SDS011;46162;57.568;25.814;2023-12-29T06:05:22;13.63;;;1.08;;
59649;SDS011;46162;57.568;25.814;2023-12-29T06:07:52;10.05;;;1.02;;
59649;SDS011;46162;57.568;25.814;2023-12-29T06:10:21;14.50;;;1.40;;
59649;SDS011;46162;57.568;25.814;2023-12-29T06:12:51;20.42;;;1.45;;
59649;SDS011;46162;57.568;25.814;2023-12-29T06:15:20;24.23;;;1.73;;
59649;SDS011;46162;57.568;25.814;2023-12-29T06:17:49;18.83;;;1.38;;
59649;SDS011;46162;57.568;25.814;2023-12-29T06:20:18;22.25;;;2.17;;
59649;SDS011;46162;57.568;25.814;2023-12-29T06:22:47;15.63;;;1.35;;
59649;SDS011;46162;57.568;25.814;2023-12-29T06:25:17;12.27;;;1.38;;
59649;SDS011;46162;57.568;25.814;2023-12-29T06:27:46;15.07;;;2.47;;
59649;SDS011;46162;57.568;25.814;2023-12-29T06:30:15;14.15;;;1.58;;
59649;SDS011;46162;57.568;25.814;2023-12-29T06:32:44;13.73;;;1.95;;
59649;SDS011;46162;57.568;25.814;2023-12-29T06:35:13;15.40;;;1.73;;
59649;SDS011;46162;57.568;25.814;2023-12-29T06:37:41;20.08;;;2.13;;
59649;SDS011;46162;57.568;25.814;2023-12-29T06:40:10;17.35;;;2.00;;
59649;SDS011;46162;57.568;25.814;2023-12-29T06:42:40;15.48;;;1.90;;
59649;SDS011;46162;57.568;25.814;2023-12-29T06:45:09;11.00;;;1.23;;
59649;SDS011;46162;57.568;25.814;2023-12-29T06:47:38;18.65;;;1.77;;
59649;SDS011;46162;57.568;25.814;2023-12-29T06:50:07;11.55;;;1.70;;
59649;SDS011;46162;57.568;25.814;2023-12-29T06:52:40;18.15;;;1.63;;
59649;SDS011;46162;57.568;25.814;2023-12-29T06:55:09;19.25;;;1.67;;
59649;SDS011;46162;57.568;25.814;2023-12-29T06:57:37;20.50;;;1.55;;
59649;SDS011;46162;57.568;25.814;2023-12-29T07:00:09;19.52;;;1.83;;
59649;SDS011;46162;57.568;25.814;2023-12-29T07:02:39;15.25;;;1.38;;
59649;SDS011;46162;57.568;25.814;2023-12-29T07:05:09;17.80;;;1.52;;
59649;SDS011;46162;57.568;25.814;2023-12-29T07:07:38;19.67;;;1.73;;
59649;SDS011;46162;57.568;25.814;2023-12-29T07:10:08;19.88;;;1.23;;
59649;SDS011;46162;57.568;25.814;2023-12-29T07:12:40;15.95;;;1.63;;
59649;SDS011;46162;57.568;25.814;2023-12-29T07:15:11;29.85;;;1.80;;
59649;SDS011;46162;57.568;25.814;2023-12-29T07:20:11;17.92;;;1.02;;
59649;SDS011;46162;57.568;25.814;2023-12-29T07:22:40;19.70;;;1.30;;
59649;SDS011;46162;57.568;25.814;2023-12-29T07:25:09;18.42;;;1.40;;
59649;SDS011;46162;57.568;25.814;2023-12-29T07:27:38;22.75;;;1.38;;
59649;SDS011;46162;57.568;25.814;2023-12-29T07:30:07;14.57;;;1.20;;
59649;SDS011;46162;57.568;25.814;2023-12-29T07:32:38;19.05;;;1.23;;
59649;SDS011;46162;57.568;25.814;2023-12-29T07:35:07;16.63;;;1.15;;
59649;SDS011;46162;57.568;25.814;2023-12-29T07:37:37;18.33;;;1.10;;
59649;SDS011;46162;57.568;25.814;2023-12-29T07:40:07;19.60;;;1.58;;
59649;SDS011;46162;57.568;25.814;2023-12-29T07:42:39;25.05;;;1.90;;
59649;SDS011;46162;57.568;25.814;2023-12-29T07:45:08;15.93;;;1.25;;
59649;SDS011;46162;57.568;25.814;2023-12-29T07:47:38;13.32;;;1.40;;
59649;SDS011;46162;57.568;25.814;2023-12-29T07:50:07;20.33;;;1.02;;
59649;SDS011;46162;57.568;25.814;2023-12-29T07:52:36;20.92;;;1.40;;
59649;SDS011;46162;57.568;25.814;2023-12-29T07:55:05;18.33;;;1.58;;
59649;SDS011;46162;57.568;25.814;2023-12-29T07:57:34;20.20;;;1.20;;
59649;SDS011;46162;57.568;25.814;2023-12-29T08:00:03;17.42;;;0.98;;
59649;SDS011;46162;57.568;25.814;2023-12-29T08:02:39;21.90;;;1.20;;
59649;SDS011;46162;57.568;25.814;2023-12-29T08:05:07;20.97;;;1.50;;
59649;SDS011;46162;57.568;25.814;2023-12-29T08:07:37;17.88;;;1.70;;
59649;SDS011;46162;57.568;25.814;2023-12-29T08:10:06;24.75;;;1.25;;
59649;SDS011;46162;57.568;25.814;2023-12-29T08:12:36;13.73;;;1.02;;
59649;SDS011;46162;57.568;25.814;2023-12-29T08:15:05;18.25;;;0.70;;
59649;SDS011;46162;57.568;25.814;2023-12-29T08:17:34;16.33;;;1.00;;
59649;SDS011;46162;57.568;25.814;2023-12-29T08:20:06;13.20;;;1.50;;
59649;SDS011;46162;57.568;25.814;2023-12-29T08:22:39;10.32;;;1.67;;
59649;SDS011;46162;57.568;25.814;2023-12-29T08:25:08;19.17;;;1.45;;
59649;SDS011;46162;57.568;25.814;2023-12-29T08:27:36;11.85;;;1.30;;
59649;SDS011;46162;57.568;25.814;2023-12-29T08:30:06;10.20;;;1.05;;
59649;SDS011;46162;57.568;25.814;2023-12-29T08:32:35;8.43;;;0.98;;
59649;SDS011;46162;57.568;25.814;2023-12-29T08:35:05;10.90;;;1.02;;
59649;SDS011;46162;57.568;25.814;2023-12-29T08:37:35;11.02;;;1.45;;
59649;SDS011;46162;57.568;25.814;2023-12-29T08:40:04;10.15;;;1.30;;
59649;SDS011;46162;57.568;25.814;2023-12-29T08:42:34;9.50;;;1.60;;
59649;SDS011;46162;57.568;25.814;2023-12-29T08:45:03;6.68;;;1.42;;
59649;SDS011;46162;57.568;25.814;2023-12-29T08:47:35;9.88;;;1.52;;
59649;SDS011;46162;57.568;25.814;2023-12-29T08:50:06;8.70;;;2.35;;
59649;SDS011;46162;57.568;25.814;2023-12-29T08:52:35;7.93;;;1.42;;
59649;SDS011;46162;57.568;25.814;2023-12-29T08:55:04;7.40;;;1.50;;
59649;SDS011;46162;57.568;25.814;2023-12-29T08:57:33;8.20;;;1.50;;
59649;SDS011;46162;57.568;25.814;2023-12-29T09:00:02;7.78;;;1.70;;
59649;SDS011;46162;57.568;25.814;2023-12-29T09:02:32;5.70;;;1.10;;
59649;SDS011;46162;57.568;25.814;2023-12-29T09:05:00;5.00;;;1.23;;
59649;SDS011;46162;57.568;25.814;2023-12-29T09:07:31;5.35;;;1.45;;
59649;SDS011;46162;57.568;25.814;2023-12-29T09:10:00;4.90;;;1.25;;
59649;SDS011;46162;57.568;25.814;2023-12-29T09:12:30;12.70;;;1.48;;
59649;SDS011;46162;57.568;25.814;2023-12-29T09:14:58;5.65;;;1.52;;
59649;SDS011;46162;57.568;25.814;2023-12-29T09:17:27;3.97;;;1.27;;
59649;SDS011;46162;57.568;25.814;2023-12-29T09:19:56;4.38;;;1.35;;
59649;SDS011;46162;57.568;25.814;2023-12-29T09:22:38;4.55;;;1.30;;
59649;SDS011;46162;57.568;25.814;2023-12-29T09:25:09;4.97;;;1.50;;
59649;SDS011;46162;57.568;25.814;2023-12-29T09:27:38;4.75;;;1.83;;
59649;SDS011;46162;57.568;25.814;2023-12-29T09:30:08;5.82;;;2.08;;
59649;SDS011;46162;57.568;25.814;2023-12-29T09:32:37;5.22;;;1.58;;
59649;SDS011;46162;57.568;25.814;2023-12-29T09:35:06;5.30;;;1.67;;
59649;SDS011;46162;57.568;25.814;2023-12-29T09:37:35;6.45;;;2.13;;
59649;SDS011;46162;57.568;25.814;2023-12-29T09:40:06;6.97;;;2.17;;
59649;SDS011;46162;57.568;25.814;2023-12-29T09:42:36;5.20;;;2.20;;
59649;SDS011;46162;57.568;25.814;2023-12-29T09:45:07;4.40;;;2.13;;
59649;SDS011;46162;57.568;25.814;2023-12-29T09:47:39;6.88;;;2.67;;
59649;SDS011;46162;57.568;25.814;2023-12-29T09:50:09;7.30;;;2.83;;
59649;SDS011;46162;57.568;25.814;2023-12-29T09:52:39;7.68;;;2.97;;
59649;SDS011;46162;57.568;25.814;2023-12-29T09:55:10;6.95;;;2.67;;
59649;SDS011;46162;57.568;25.814;2023-12-29T09:57:39;9.18;;;3.15;;
59649;SDS011;46162;57.568;25.814;2023-12-29T10:00:10;8.27;;;3.53;;
59649;SDS011;46162;57.568;25.814;2023-12-29T10:05:08;8.40;;;3.30;;
59649;SDS011;46162;57.568;25.814;2023-12-29T10:07:38;8.57;;;3.47;;
59649;SDS011;46162;57.568;25.814;2023-12-29T10:10:07;7.75;;;4.18;;
59649;SDS011;46162;57.568;25.814;2023-12-29T10:12:47;9.73;;;4.43;;
59649;SDS011;46162;57.568;25.814;2023-12-29T10:15:19;14.05;;;4.95;;
59649;SDS011;46162;57.568;25.814;2023-12-29T10:17:55;12.48;;;5.05;;
59649;SDS011;46162;57.568;25.814;2023-12-29T10:20:38;9.77;;;4.95;;
59649;SDS011;46162;57.568;25.814;2023-12-29T10:23:16;12.38;;;5.25;;
59649;SDS011;46162;57.568;25.814;2023-12-29T10:25:48;11.60;;;5.53;;
59649;SDS011;46162;57.568;25.814;2023-12-29T10:28:18;11.75;;;5.78;;
59649;SDS011;46162;57.568;25.814;2023-12-29T10:30:47;10.65;;;5.90;;
59649;SDS011;46162;57.568;25.814;2023-12-29T10:33:19;11.77;;;5.55;;
59649;SDS011;46162;57.568;25.814;2023-12-29T10:35:57;14.02;;;5.75;;
59649;SDS011;46162;57.568;25.814;2023-12-29T10:38:30;10.15;;;5.63;;
59649;SDS011;46162;57.568;25.814;2023-12-29T10:41:14;17.02;;;6.38;;
59649;SDS011;46162;57.568;25.814;2023-12-29T10:43:44;9.85;;;5.28;;
59649;SDS011;46162;57.568;25.814;2023-12-29T10:46:18;10.90;;;6.13;;
59649;SDS011;46162;57.568;25.814;2023-12-29T10:48:48;13.55;;;5.85;;
59649;SDS011;46162;57.568;25.814;2023-12-29T10:51:17;14.13;;;5.63;;
59649;SDS011;46162;57.568;25.814;2023-12-29T10:53:56;13.63;;;6.18;;
59649;SDS011;46162;57.568;25.814;2023-12-29T10:56:26;10.65;;;6.03;;
59649;SDS011;46162;57.568;25.814;2023-12-29T10:58:59;11.15;;;6.15;;
59649;SDS011;46162;57.568;25.814;2023-12-29T11:01:32;12.52;;;6.13;;
59649;SDS011;46162;57.568;25.814;2023-12-29T11:04:03;12.73;;;6.63;;
59649;SDS011;46162;57.568;25.814;2023-12-29T11:06:39;10.02;;;5.63;;
59649;SDS011;46162;57.568;25.814;2023-12-29T11:09:11;10.57;;;5.50;;
59649;SDS011;46162;57.568;25.814;2023-12-29T11:11:40;13.50;;;5.57;;
59649;SDS011;46162;57.568;25.814;2023-12-29T11:14:13;8.43;;;4.00;;
59649;SDS011;46162;57.568;25.814;2023-12-29T11:16:42;7.30;;;4.22;;
59649;SDS011;46162;57.568;25.814;2023-12-29T11:19:12;9.18;;;4.05;;
59649;SDS011;46162;57.568;25.814;2023-12-29T11:21:42;9.30;;;3.63;;
59649;SDS011;46162;57.568;25.814;2023-12-29T11:24:12;10.70;;;4.10;;
59649;SDS011;46162;57.568;25.814;2023-12-29T11:26:52;9.13;;;3.88;;
59649;SDS011;46162;57.568;25.814;2023-12-29T11:29:21;6.97;;;4.10;;
59649;SDS011;46162;57.568;25.814;2023-12-29T11:31:51;6.45;;;3.40;;
59649;SDS011;46162;57.568;25.814;2023-12-29T11:34:23;8.43;;;3.38;;
59649;SDS011;46162;57.568;25.814;2023-12-29T11:37:01;7.05;;;3.50;;
59649;SDS011;46162;57.568;25.814;2023-12-29T11:39:44;5.40;;;2.33;;
59649;SDS011;46162;57.568;25.814;2023-12-29T11:42:21;6.47;;;2.80;;
59649;SDS011;46162;57.568;25.814;2023-12-29T11:44:57;5.80;;;2.40;;
59649;SDS011;46162;57.568;25.814;2023-12-29T11:47:34;5.05;;;2.47;;
59649;SDS011;46162;57.568;25.814;2023-12-29T11:50:03;8.63;;;2.67;;
59649;SDS011;46162;57.568;25.814;2023-12-29T11:52:33;5.35;;;2.92;;
59649;SDS011;46162;57.568;25.814;2023-12-29T11:55:07;8.77;;;2.85;;
59649;SDS011;46162;57.568;25.814;2023-12-29T11:57:38;4.68;;;2.53;;
59649;SDS011;46162;57.568;25.814;2023-12-29T12:00:08;4.78;;;2.33;;
59649;SDS011;46162;57.568;25.814;2023-12-29T12:02:38;5.40;;;2.78;;
59649;SDS011;46162;57.568;25.814;2023-12-29T12:05:09;6.17;;;2.90;;
59649;SDS011;46162;57.568;25.814;2023-12-29T12:10:28;6.28;;;3.05;;
59649;SDS011;46162;57.568;25.814;2023-12-29T12:13:02;4.75;;;2.53;;
59649;SDS011;46162;57.568;25.814;2023-12-29T12:15:32;5.13;;;3.03;;
59649;SDS011;46162;57.568;25.814;2023-12-29T12:18:02;8.48;;;3.22;;
59649;SDS011;46162;57.568;25.814;2023-12-29T12:20:35;7.78;;;3.15;;
59649;SDS011;46162;57.568;25.814;2023-12-29T12:23:04;7.88;;;2.75;;
59649;SDS011;46162;57.568;25.814;2023-12-29T12:25:42;5.10;;;2.25;;
59649;SDS011;46162;57.568;25.814;2023-12-29T12:28:15;4.90;;;2.42;;
59649;SDS011;46162;57.568;25.814;2023-12-29T12:30:44;5.93;;;2.45;;
59649;SDS011;46162;57.568;25.814;2023-12-29T12:33:16;6.10;;;2.28;;
59649;SDS011;46162;57.568;25.814;2023-12-29T12:35:45;9.43;;;3.13;;
59649;SDS011;46162;57.568;25.814;2023-12-29T12:38:15;5.57;;;2.45;;
59649;SDS011;46162;57.568;25.814;2023-12-29T12:40:49;6.57;;;2.30;;
59649;SDS011;46162;57.568;25.814;2023-12-29T12:43:19;6.22;;;2.28;;
59649;SDS011;46162;57.568;25.814;2023-12-29T12:45:53;4.75;;;2.50;;
59649;SDS011;46162;57.568;25.814;2023-12-29T12:48:32;6.85;;;2.90;;
59649;SDS011;46162;57.568;25.814;2023-12-29T12:51:04;5.50;;;2.42;;
59649;SDS011;46162;57.568;25.814;2023-12-29T12:53:33;6.05;;;2.67;;
59649;SDS011;46162;57.568;25.814;2023-12-29T12:56:04;6.55;;;2.42;;
59649;SDS011;46162;57.568;25.814;2023-12-29T12:58:37;7.60;;;3.00;;
59649;SDS011;46162;57.568;25.814;2023-12-29T13:01:06;8.32;;;2.70;;
59649;SDS011;46162;57.568;25.814;2023-12-29T13:03:36;5.00;;;2.63;;
59649;SDS011;46162;57.568;25.814;2023-12-29T13:06:06;5.35;;;2.83;;
59649;SDS011;46162;57.568;25.814;2023-12-29T13:08:35;5.43;;;2.40;;
59649;SDS011;46162;57.568;25.814;2023-12-29T13:11:09;6.10;;;2.75;;
59649;SDS011;46162;57.568;25.814;2023-12-29T13:13:41;5.93;;;2.97;;
59649;SDS011;46162;57.568;25.814;2023-12-29T13:16:12;6.20;;;2.92;;
59649;SDS011;46162;57.568;25.814;2023-12-29T13:18:41;8.70;;;3.78;;
59649;SDS011;46162;57.568;25.814;2023-12-29T13:21:12;9.75;;;3.60;;
59649;SDS011;46162;57.568;25.814;2023-12-29T13:23:45;6.53;;;3.47;;
59649;SDS011;46162;57.568;25.814;2023-12-29T13:26:15;7.63;;;4.40;;
59649;SDS011;46162;57.568;25.814;2023-12-29T13:31:17;7.85;;;3.83;;
59649;SDS011;46162;57.568;25.814;2023-12-29T13:33:49;10.10;;;4.60;;
59649;SDS011;46162;57.568;25.814;2023-12-29T13:36:26;6.57;;;3.90;;
59649;SDS011;46162;57.568;25.814;2023-12-29T13:39:06;9.02;;;4.38;;
59649;SDS011;46162;57.568;25.814;2023-12-29T13:41:39;8.75;;;4.88;;
59649;SDS011;46162;57.568;25.814;2023-12-29T13:44:10;9.27;;;4.63;;
59649;SDS011;46162;57.568;25.814;2023-12-29T13:46:40;9.57;;;5.28;;
59649;SDS011;46162;57.568;25.814;2023-12-29T13:49:10;7.97;;;4.72;;
59649;SDS011;46162;57.568;25.814;2023-12-29T13:51:39;10.77;;;4.88;;
59649;SDS011;46162;57.568;25.814;2023-12-29T13:54:12;8.85;;;4.97;;
59649;SDS011;46162;57.568;25.814;2023-12-29T13:56:50;9.07;;;4.85;;
59649;SDS011;46162;57.568;25.814;2023-12-29T13:59:30;8.63;;;5.63;;
59649;SDS011;46162;57.568;25.814;2023-12-29T14:02:02;7.93;;;4.47;;
59649;SDS011;46162;57.568;25.814;2023-12-29T14:04:48;9.43;;;4.93;;
59649;SDS011;46162;57.568;25.814;2023-12-29T14:07:18;9.57;;;5.35;;
59649;SDS011;46162;57.568;25.814;2023-12-29T14:09:53;11.00;;;5.82;;
59649;SDS011;46162;57.568;25.814;2023-12-29T14:12:25;9.57;;;5.80;;
59649;SDS011;46162;57.568;25.814;2023-12-29T14:14:56;10.45;;;6.80;;
59649;SDS011;46162;57.568;25.814;2023-12-29T14:17:31;9.63;;;6.68;;
59649;SDS011;46162;57.568;25.814;2023-12-29T14:20:00;12.25;;;6.20;;
59649;SDS011;46162;57.568;25.814;2023-12-29T14:22:33;12.90;;;6.75;;
59649;SDS011;46162;57.568;25.814;2023-12-29T14:25:02;12.05;;;6.80;;
59649;SDS011;46162;57.568;25.814;2023-12-29T14:27:33;8.82;;;6.47;;
59649;SDS011;46162;57.568;25.814;2023-12-29T14:30:03;12.30;;;6.68;;
59649;SDS011;46162;57.568;25.814;2023-12-29T14:32:45;13.27;;;6.38;;
59649;SDS011;46162;57.568;25.814;2023-12-29T14:35:14;10.32;;;6.18;;
59649;SDS011;46162;57.568;25.814;2023-12-29T14:37:42;12.45;;;7.43;;
59649;SDS011;46162;57.568;25.814;2023-12-29T14:40:11;14.10;;;7.10;;
59649;SDS011;46162;57.568;25.814;2023-12-29T14:42:41;12.70;;;7.28;;
59649;SDS011;46162;57.568;25.814;2023-12-29T14:45:11;13.98;;;7.68;;
59649;SDS011;46162;57.568;25.814;2023-12-29T14:47:40;14.95;;;7.30;;
59649;SDS011;46162;57.568;25.814;2023-12-29T14:50:10;15.52;;;8.38;;
59649;SDS011;46162;57.568;25.814;2023-12-29T14:52:39;13.68;;;8.30;;
59649;SDS011;46162;57.568;25.814;2023-12-29T14:55:07;13.38;;;8.90;;